Time;durP1;ratioP1;P1;durP2;ratioP2;P2;SDS_P1;SDS_P2;PMS_P1;PMS_P2;Temp;Humidity;BMP_temperature;BMP_pressure;BME280_temperature;BME280_humidity;BME280_pressure;Samples;Min_cycle;Max_cycle;Signal;HPM_P1;HPM_P2
2023/03/12 00:00:10;;;;;;;6.97;4.78;;;;;;;1.92;61.02;99343.47;4393174;32;33912;-77
2023/03/12 00:02:38;;;;;;;6.43;3.92;;;;;;;1.88;60.31;99336.38;4389938;32;33865;-80
2023/03/12 00:05:06;;;;;;;8.73;4.62;;;;;;;1.81;60.73;99346.94;4376167;32;33648;-79
2023/03/12 00:07:35;;;;;;;5.95;3.53;;;;;;;2.25;58.54;99347.53;4388830;32;34270;-80
2023/03/12 00:10:04;;;;;;;6.57;4.07;;;;;;;2.13;57.97;99350.09;4390798;32;33232;-81
2023/03/12 00:12:32;;;;;;;8.57;4.67;;;;;;;2.22;57.30;99351.53;4375974;32;33075;-80
2023/03/12 00:14:59;;;;;;;6.70;4.32;;;;;;;2.47;56.30;99357.59;4389873;32;33489;-80
2023/03/12 00:17:29;;;;;;;7.43;4.47;;;;;;;2.51;55.18;99359.56;4426515;32;33277;-78
2023/03/12 00:19:56;;;;;;;14.25;8.55;;;;;;;2.13;56.61;99365.44;4435016;32;34246;-80
2023/03/12 00:22:24;;;;;;;12.30;6.93;;;;;;;2.67;53.99;99375.97;4394223;32;34430;-79
2023/03/12 00:24:54;;;;;;;5.70;3.15;;;;;;;2.65;54.04;99382.66;4392265;32;33979;-77
2023/03/12 00:27:23;;;;;;;25.05;13.05;;;;;;;2.69;53.06;99390.63;4378964;32;33699;-78
2023/03/12 00:29:50;;;;;;;22.35;12.75;;;;;;;3.23;51.42;99391.72;4391369;32;33577;-77
2023/03/12 00:32:19;;;;;;;25.65;14.10;;;;;;;2.88;52.29;99385.13;4381080;32;33732;-77
2023/03/12 00:34:51;;;;;;;6.13;3.03;;;;;;;3.49;50.83;99390.00;4378073;32;33665;-80
2023/03/12 00:37:19;;;;;;;24.80;12.52;;;;;;;3.57;50.25;99387.94;4372062;32;33127;-77
2023/03/12 00:39:47;;;;;;;5.68;3.40;;;;;;;3.66;49.92;99394.56;4378304;32;33616;-77
2023/03/12 00:42:16;;;;;;;13.90;7.47;;;;;;;2.41;54.78;99398.03;4380856;32;33288;-78
2023/03/12 00:44:44;;;;;;;11.25;7.35;;;;;;;3.33;53.29;99399.22;4375032;32;34445;-79
2023/03/12 00:47:12;;;;;;;6.95;3.85;;;;;;;3.55;51.94;99400.63;4412310;32;34425;-79
2023/03/12 00:49:39;;;;;;;7.25;4.35;;;;;;;3.09;53.10;99407.81;4401825;32;34154;-79
2023/03/12 00:52:07;;;;;;;7.62;4.28;;;;;;;3.10;53.50;99410.47;4447788;32;33428;-80
2023/03/12 00:54:34;;;;;;;9.23;4.87;;;;;;;3.42;53.13;99415.97;4437272;32;33409;-77
2023/03/12 00:57:02;;;;;;;9.02;5.72;;;;;;;4.13;51.12;99414.69;4409798;32;34645;-81
2023/03/12 00:59:31;;;;;;;7.70;4.40;;;;;;;3.61;52.52;99425.78;4427043;32;34324;-78
2023/03/12 01:01:58;;;;;;;7.77;4.00;;;;;;;3.23;53.37;99422.44;4433391;32;33576;-80
2023/03/12 01:04:26;;;;;;;8.35;4.45;;;;;;;2.66;55.97;99425.31;4399026;32;34645;-76
2023/03/12 01:06:54;;;;;;;8.23;4.68;;;;;;;2.79;55.95;99430.53;4421763;32;33913;-77
2023/03/12 01:09:22;;;;;;;6.65;4.30;;;;;;;2.66;56.62;99433.00;4411248;32;33951;-78
2023/03/12 01:11:50;;;;;;;11.48;6.53;;;;;;;2.46;57.01;99436.72;4434323;32;33184;-78
2023/03/12 01:14:18;;;;;;;8.02;4.85;;;;;;;2.43;57.20;99434.81;4399868;32;34014;-80
2023/03/12 01:16:46;;;;;;;6.50;3.97;;;;;;;2.10;58.38;99426.53;4431082;32;33680;-79
2023/03/12 01:19:13;;;;;;;9.13;5.70;;;;;;;1.69;60.12;99442.28;4465109;32;33657;-79
2023/03/12 01:21:41;;;;;;;8.07;4.55;;;;;;;2.06;58.54;99444.97;4402625;32;33033;-77
2023/03/12 01:24:09;;;;;;;7.78;4.65;;;;;;;2.54;58.03;99433.91;4448990;32;33525;-79
2023/03/12 01:26:37;;;;;;;8.15;4.95;;;;;;;1.76;60.12;99444.53;4390209;32;33773;-79
2023/03/12 01:29:04;;;;;;;8.97;4.67;;;;;;;2.87;57.07;99449.84;4422626;32;33503;-76
2023/03/12 01:31:32;;;;;;;7.68;4.47;;;;;;;2.38;57.52;99459.19;4443970;32;32392;-78
2023/03/12 01:33:59;;;;;;;7.03;4.45;;;;;;;2.51;57.89;99459.28;4404732;32;33581;-76
2023/03/12 01:36:29;;;;;;;6.80;4.37;;;;;;;1.69;59.83;99462.72;4400224;32;33792;-80
2023/03/12 01:38:58;;;;;;;7.78;4.50;;;;;;;1.67;60.83;99469.38;4417743;32;33929;-79
2023/03/12 01:41:27;;;;;;;7.70;4.60;;;;;;;3.05;57.17;99454.44;4448725;32;33619;-76
2023/03/12 01:43:55;;;;;;;7.12;4.72;;;;;;;1.37;61.28;99468.88;4406744;32;34180;-76
2023/03/12 01:46:35;;;;;;;7.18;4.28;;;;;;;2.51;58.88;99461.84;4454325;32;33909;-78
2023/03/12 01:49:19;;;;;;;8.30;4.32;;;;;;;1.92;60.55;99466.09;4413622;32;33111;-77
2023/03/12 01:52:05;;;;;;;8.40;4.70;;;;;;;2.23;59.75;99469.19;4448841;32;32994;-80
2023/03/12 01:54:40;;;;;;;8.50;4.90;;;;;;;2.04;61.16;99466.09;4393551;32;33133;-77
2023/03/12 01:57:11;;;;;;;7.47;4.57;;;;;;;2.11;60.65;99468.31;4381710;32;33300;-80
2023/03/12 01:59:43;;;;;;;8.18;5.00;;;;;;;1.85;61.86;99461.28;4387617;32;33467;-77
2023/03/12 02:02:11;;;;;;;7.93;4.47;;;;;;;1.72;62.04;99468.06;4447913;32;33672;-77
2023/03/12 02:04:41;;;;;;;8.35;4.53;;;;;;;1.65;62.44;99476.03;4395005;32;33346;-78
2023/03/12 02:07:14;;;;;;;8.70;5.00;;;;;;;1.60;62.56;99472.22;4418246;32;34007;-78
2023/03/12 02:09:47;;;;;;;9.40;5.28;;;;;;;1.64;62.32;99479.38;4389394;32;33108;-77
2023/03/12 02:12:15;;;;;;;8.45;5.10;;;;;;;1.44;63.16;99484.63;4392395;32;33467;-77
2023/03/12 02:14:43;;;;;;;8.70;5.53;;;;;;;1.49;63.03;99488.44;4454359;32;34016;-80
2023/03/12 02:17:11;;;;;;;9.73;5.70;;;;;;;1.41;63.88;99489.50;4425715;32;33792;-78
2023/03/12 02:20:02;;;;;;;9.18;5.60;;;;;;;1.20;65.00;99499.88;4392235;32;33985;-78
2023/03/12 02:22:30;;;;;;;12.68;6.35;;;;;;;1.50;64.40;99505.50;4399167;32;32751;-78
2023/03/12 02:25:29;;;;;;;11.00;5.77;;;;;;;1.74;63.88;99515.03;4397648;32;34336;-78
2023/03/12 02:27:59;;;;;;;7.82;5.55;;;;;;;1.86;63.64;99517.59;4380928;32;32943;-79
2023/03/12 02:30:27;;;;;;;9.57;5.62;;;;;;;2.20;62.19;99525.19;4384736;32;34536;-78
2023/03/12 02:32:55;;;;;;;10.70;6.00;;;;;;;2.13;62.05;99512.75;4412277;32;33542;-77
2023/03/12 02:35:23;;;;;;;9.63;6.00;;;;;;;1.68;63.81;99516.22;4400239;32;32984;-79
2023/03/12 02:37:53;;;;;;;9.73;6.12;;;;;;;1.96;63.17;99514.94;4409797;32;33847;-81
2023/03/12 02:40:25;;;;;;;10.05;5.68;;;;;;;1.06;65.94;99510.66;4411091;32;33568;-80
2023/03/12 02:42:54;;;;;;;9.38;5.57;;;;;;;1.30;64.95;99511.66;4388613;32;33516;-80
2023/03/12 02:45:21;;;;;;;10.13;6.28;;;;;;;1.32;64.74;99517.78;4405005;32;34169;-80
2023/03/12 02:47:49;;;;;;;9.68;6.30;;;;;;;1.56;64.22;99521.28;4373666;32;34633;-78
2023/03/12 02:50:17;;;;;;;10.32;6.55;;;;;;;1.34;65.53;99532.41;4418275;32;34276;-79
2023/03/12 02:52:45;;;;;;;9.73;6.30;;;;;;;2.13;62.48;99521.28;4423835;32;33318;-78
2023/03/12 02:55:12;;;;;;;9.75;6.43;;;;;;;1.55;63.83;99532.28;4429664;32;33619;-78
2023/03/12 02:57:42;;;;;;;11.10;6.37;;;;;;;2.07;62.08;99542.97;4387457;32;33729;-78
2023/03/12 03:00:12;;;;;;;9.80;6.53;;;;;;;0.81;65.85;99546.09;4393675;32;33281;-80
2023/03/12 03:02:41;;;;;;;9.93;6.80;;;;;;;1.46;64.51;99550.34;4417172;32;32069;-81
2023/03/12 03:05:10;;;;;;;11.15;6.37;;;;;;;1.99;63.21;99565.38;4409127;32;33295;-79
2023/03/12 03:07:38;;;;;;;11.50;7.00;;;;;;;2.08;62.56;99571.16;4388041;32;33398;-77
2023/03/12 03:10:07;;;;;;;10.32;6.62;;;;;;;0.86;67.30;99581.41;4383722;32;34037;-78
2023/03/12 03:12:35;;;;;;;10.75;7.28;;;;;;;1.56;65.04;99577.44;4441517;32;33942;-77
2023/03/12 03:15:04;;;;;;;12.32;6.80;;;;;;;0.95;66.94;99594.00;4423231;32;33488;-78
2023/03/12 03:17:32;;;;;;;11.23;6.80;;;;;;;1.30;65.64;99578.91;4390151;32;34284;-79
2023/03/12 03:20:00;;;;;;;12.10;7.07;;;;;;;1.17;66.78;99586.38;4390594;32;32284;-80
2023/03/12 03:22:27;;;;;;;12.43;7.18;;;;;;;0.75;68.28;99592.41;4372477;32;34021;-79
2023/03/12 03:24:55;;;;;;;11.25;6.70;;;;;;;0.65;68.55;99595.88;4384897;32;33645;-79
2023/03/12 03:27:22;;;;;;;13.25;7.78;;;;;;;0.56;69.03;99603.69;4391234;32;33662;-77
2023/03/12 03:29:50;;;;;;;11.65;7.32;;;;;;;0.56;69.32;99595.13;4391423;32;34030;-78
2023/03/12 03:32:18;;;;;;;12.35;7.70;;;;;;;0.61;69.21;99605.72;4391454;32;32726;-81
2023/03/12 03:34:46;;;;;;;12.00;7.70;;;;;;;0.72;69.18;99604.91;4426483;32;33471;-77
2023/03/12 03:37:15;;;;;;;12.23;8.07;;;;;;;0.50;68.94;99613.41;4405614;32;34203;-78
2023/03/12 03:39:43;;;;;;;11.50;7.53;;;;;;;0.57;69.06;99625.84;4413583;32;33234;-78
2023/03/12 03:42:11;;;;;;;13.23;8.25;;;;;;;1.08;67.65;99626.44;4453638;32;33672;-77
2023/03/12 03:44:38;;;;;;;11.43;7.68;;;;;;;0.86;68.04;99614.56;4393273;32;33512;-79
2023/03/12 03:47:06;;;;;;;12.27;8.20;;;;;;;0.67;69.70;99621.50;4407060;32;33723;-79
2023/03/12 03:49:34;;;;;;;12.07;8.18;;;;;;;1.17;67.48;99622.09;4398883;32;34452;-79
2023/03/12 03:52:01;;;;;;;12.57;8.05;;;;;;;1.40;66.44;99615.34;4367087;32;33341;-77
2023/03/12 03:54:29;;;;;;;13.73;8.27;;;;;;;0.49;69.22;99631.97;4418823;32;33787;-80
2023/03/12 03:56:57;;;;;;;13.27;8.07;;;;;;;0.26;69.78;99627.56;4429624;32;34295;-76
2023/03/12 03:59:25;;;;;;;15.85;8.73;;;;;;;1.14;67.72;99621.81;4405991;32;34519;-79
2023/03/12 04:01:53;;;;;;;13.57;8.82;;;;;;;0.31;70.20;99625.38;4452806;32;32885;-78
2023/03/12 04:04:21;;;;;;;16.30;9.90;;;;;;;1.42;66.62;99624.00;4415030;32;34170;-78
2023/03/12 04:06:49;;;;;;;14.07;9.68;;;;;;;0.35;69.96;99628.31;4390407;32;34232;-77
2023/03/12 04:09:16;;;;;;;16.30;10.32;;;;;;;1.48;65.70;99634.69;4398735;32;33575;-80
2023/03/12 04:11:45;;;;;;;15.80;9.50;;;;;;;0.26;70.19;99640.28;4391934;32;34115;-80
2023/03/12 04:14:12;;;;;;;14.45;9.48;;;;;;;0.63;68.75;99638.19;4396318;32;33331;-78
2023/03/12 04:16:40;;;;;;;15.57;9.50;;;;;;;-0.06;71.47;99638.53;4425244;32;34384;-77
2023/03/12 04:19:08;;;;;;;13.60;8.90;;;;;;;0.43;70.11;99641.69;4401289;32;33489;-78
2023/03/12 04:21:38;;;;;;;13.88;8.80;;;;;;;0.69;69.01;99645.44;4403295;32;33491;-78
2023/03/12 04:24:07;;;;;;;14.82;9.18;;;;;;;-0.13;71.70;99661.69;4420465;32;33541;-78
2023/03/12 04:26:35;;;;;;;13.50;9.32;;;;;;;0.71;69.17;99660.09;4405514;32;33416;-77
2023/03/12 04:29:03;;;;;;;13.62;9.13;;;;;;;0.27;70.04;99674.28;4405631;32;33247;-77
2023/03/12 04:31:31;;;;;;;13.77;9.20;;;;;;;0.33;70.15;99677.38;4402102;32;31724;-78
2023/03/12 04:34:00;;;;;;;14.57;9.48;;;;;;;0.05;71.58;99690.34;4366841;32;31673;-80
2023/03/12 04:36:28;;;;;;;15.20;9.03;;;;;;;1.07;68.13;99698.66;4381919;32;32228;-79
2023/03/12 04:38:56;;;;;;;13.70;9.35;;;;;;;1.50;65.71;99709.72;4419679;32;34333;-77
2023/03/12 04:41:25;;;;;;;13.70;8.93;;;;;;;1.38;66.00;99707.97;4372848;32;31785;-77
2023/03/12 04:43:53;;;;;;;13.77;8.43;;;;;;;1.20;66.87;99724.41;4413737;32;34944;-80
2023/03/12 04:46:21;;;;;;;13.27;8.73;;;;;;;2.09;62.98;99705.81;4420168;32;32935;-79
2023/03/12 04:48:50;;;;;;;12.52;8.38;;;;;;;1.76;64.32;99720.31;4431225;32;33907;-78
2023/03/12 04:51:18;;;;;;;12.63;8.25;;;;;;;1.85;63.88;99724.34;4436308;32;34025;-78
2023/03/12 04:53:45;;;;;;;15.55;8.52;;;;;;;2.30;62.07;99723.56;4375280;32;33420;-79
2023/03/12 04:56:14;;;;;;;12.55;8.05;;;;;;;2.44;61.12;99715.25;4377921;32;34448;-81
2023/03/12 04:58:41;;;;;;;13.00;7.85;;;;;;;2.01;62.62;99726.44;4397703;32;34355;-79
2023/03/12 05:01:21;;;;;;;13.88;7.97;;;;;;;1.88;62.89;99734.81;4416089;32;33329;-78
2023/03/12 05:03:49;;;;;;;11.77;7.93;;;;;;;1.23;65.14;99729.72;4406523;32;33096;-79
2023/03/12 05:06:16;;;;;;;11.82;7.35;;;;;;;0.79;67.16;99737.22;4375359;32;33330;-76
2023/03/12 05:08:44;;;;;;;13.85;7.97;;;;;;;0.53;68.27;99737.62;4457812;32;33841;-79
2023/03/12 05:11:12;;;;;;;14.00;8.57;;;;;;;0.52;68.65;99726.53;4412681;32;33379;-77
2023/03/12 05:13:41;;;;;;;13.30;7.82;;;;;;;0.50;68.89;99738.28;4377709;32;34336;-80
2023/03/12 05:16:09;;;;;;;14.38;8.43;;;;;;;0.27;69.87;99735.44;4390015;32;33915;-77
2023/03/12 05:18:37;;;;;;;14.63;7.97;;;;;;;0.24;70.33;99732.66;4381643;32;34398;-79
2023/03/12 05:21:14;;;;;;;14.50;8.10;;;;;;;0.22;70.29;99741.81;4388649;32;33154;-81
2023/03/12 05:23:42;;;;;;;13.88;8.57;;;;;;;0.40;69.68;99740.78;4384601;32;33118;-77
2023/03/12 05:26:25;;;;;;;13.32;8.57;;;;;;;0.63;68.86;99739.28;4396741;32;33582;-78
2023/03/12 05:28:54;;;;;;;14.20;8.13;;;;;;;0.81;68.03;99750.09;4388426;32;32632;-76
2023/03/12 05:31:22;;;;;;;13.73;8.32;;;;;;;0.92;67.73;99760.41;4419886;32;33116;-80
2023/03/12 05:33:50;;;;;;;14.35;8.65;;;;;;;0.89;67.63;99762.72;4359722;32;32171;-79
2023/03/12 05:36:19;;;;;;;13.73;8.23;;;;;;;0.91;67.42;99771.38;4430528;32;33777;-80
2023/03/12 05:38:48;;;;;;;14.55;9.00;;;;;;;0.93;67.37;99769.84;4444317;32;34184;-80
2023/03/12 05:41:20;;;;;;;14.57;8.43;;;;;;;0.88;67.36;99780.44;4439155;32;33903;-78
2023/03/12 05:43:47;;;;;;;14.10;8.10;;;;;;;0.85;67.62;99769.97;4378257;32;34081;-80
2023/03/12 05:46:16;;;;;;;13.07;8.80;;;;;;;0.83;67.58;99769.88;4382127;32;33642;-80
2023/03/12 05:48:44;;;;;;;14.60;8.80;;;;;;;0.48;68.89;99772.91;4398139;32;32724;-77
2023/03/12 05:51:12;;;;;;;13.13;8.05;;;;;;;0.70;68.87;99780.69;4394128;32;33505;-77
2023/03/12 05:53:42;;;;;;;14.33;9.10;;;;;;;0.76;68.18;99790.50;4380466;32;33641;-81
2023/03/12 05:56:12;;;;;;;14.00;8.40;;;;;;;0.86;67.96;99797.28;4380494;32;34480;-79
2023/03/12 05:58:40;;;;;;;14.55;8.73;;;;;;;0.98;67.71;99803.37;4407733;32;33725;-81
2023/03/12 06:01:13;;;;;;;14.98;9.00;;;;;;;0.96;67.86;99808.34;4432899;32;33374;-76
2023/03/12 06:03:41;;;;;;;14.32;9.15;;;;;;;0.78;68.66;99810.25;4373562;32;34033;-78
2023/03/12 06:06:11;;;;;;;16.62;9.65;;;;;;;0.93;68.23;99805.56;4380319;32;33650;-77
2023/03/12 06:08:40;;;;;;;14.23;8.82;;;;;;;0.26;70.10;99816.06;4423607;32;34207;-78
2023/03/12 06:11:09;;;;;;;15.67;9.47;;;;;;;0.43;70.33;99824.28;4373963;32;32855;-79
2023/03/12 06:13:36;;;;;;;16.75;9.20;;;;;;;0.83;68.67;99825.97;4386950;32;34364;-76
2023/03/12 06:16:15;;;;;;;15.47;9.07;;;;;;;1.20;67.49;99829.00;4396215;32;33522;-81
2023/03/12 06:18:43;;;;;;;15.13;9.40;;;;;;;0.63;68.67;99838.69;4436815;32;30618;-77
2023/03/12 06:21:15;;;;;;;14.80;8.95;;;;;;;0.76;68.79;99842.41;4421588;32;33435;-77
2023/03/12 06:23:45;;;;;;;15.20;8.88;;;;;;;1.40;66.65;99850.16;4397468;32;33477;-79
2023/03/12 06:26:14;;;;;;;14.35;9.15;;;;;;;1.46;66.42;99845.53;4390450;32;33173;-79
2023/03/12 06:28:45;;;;;;;15.70;8.75;;;;;;;1.05;66.98;99845.59;4410637;32;34371;-78
2023/03/12 06:31:13;;;;;;;14.60;9.15;;;;;;;1.40;66.65;99857.81;4389838;32;32846;-79
2023/03/12 06:33:41;;;;;;;14.18;8.48;;;;;;;0.62;69.23;99860.75;4388888;32;34263;-76
2023/03/12 06:36:09;;;;;;;13.52;7.78;;;;;;;1.30;66.19;99854.50;4394357;32;33341;-80
2023/03/12 06:38:37;;;;;;;12.57;7.47;;;;;;;1.25;65.68;99860.88;4394520;32;34045;-80
2023/03/12 06:41:11;;;;;;;13.25;9.10;;;;;;;1.18;65.85;99869.69;4379751;32;33367;-76
2023/03/12 06:43:39;;;;;;;14.20;8.60;;;;;;;1.14;66.72;99867.66;4411696;32;33958;-80
2023/03/12 06:46:10;;;;;;;12.37;7.32;;;;;;;1.45;64.90;99869.25;4399647;32;33884;-79
2023/03/12 06:48:40;;;;;;;12.27;8.07;;;;;;;1.43;64.33;99873.34;4393472;32;33309;-76
2023/03/12 06:51:09;;;;;;;12.40;7.75;;;;;;;1.22;65.72;99881.06;4392166;32;32786;-78
2023/03/12 06:53:37;;;;;;;12.88;7.47;;;;;;;1.26;64.84;99872.88;4407486;32;34372;-77
2023/03/12 06:56:09;;;;;;;12.60;8.40;;;;;;;1.38;65.55;99873.88;4399781;32;33879;-77
2023/03/12 06:58:37;;;;;;;13.60;8.52;;;;;;;1.40;65.03;99875.69;4408276;32;33612;-80
2023/03/12 07:01:06;;;;;;;14.38;8.52;;;;;;;1.23;65.52;99885.38;4409609;32;33152;-78
2023/03/12 07:03:33;;;;;;;13.10;7.90;;;;;;;0.59;67.48;99888.50;4438838;32;33639;-77
2023/03/12 07:06:01;;;;;;;13.30;7.70;;;;;;;1.37;64.84;99882.31;4419743;32;33962;-79
2023/03/12 07:08:29;;;;;;;13.02;8.63;;;;;;;1.14;65.96;99892.25;4412116;32;34394;-78
2023/03/12 07:10:59;;;;;;;13.40;8.70;;;;;;;1.40;64.83;99886.78;4392012;32;33232;-78
2023/03/12 07:13:29;;;;;;;14.27;9.05;;;;;;;1.08;66.27;99897.78;4418218;32;33980;-77
2023/03/12 07:15:56;;;;;;;13.82;8.63;;;;;;;0.99;66.30;99891.91;4377664;32;33741;-80
2023/03/12 07:18:24;;;;;;;15.20;8.80;;;;;;;1.53;65.08;99898.88;4407304;32;33813;-83
2023/03/12 07:20:52;;;;;;;15.13;9.40;;;;;;;1.77;64.17;99902.53;4407838;32;33263;-78
2023/03/12 07:23:20;;;;;;;12.77;8.38;;;;;;;2.26;62.60;99906.47;4407697;32;33535;-79
2023/03/12 07:25:48;;;;;;;12.37;8.25;;;;;;;2.27;62.28;99904.78;4415489;32;34538;-78
2023/03/12 07:28:16;;;;;;;11.90;7.00;;;;;;;1.80;63.54;99901.87;4387834;32;34088;-80
2023/03/12 07:30:49;;;;;;;13.02;8.05;;;;;;;1.86;62.84;99899.84;4395328;32;34022;-80
2023/03/12 07:33:18;;;;;;;11.48;7.40;;;;;;;2.08;62.49;99898.22;4440845;32;33103;-78
2023/03/12 07:35:47;;;;;;;13.60;8.40;;;;;;;1.85;62.74;99898.03;4396210;32;34483;-79
2023/03/12 07:38:18;;;;;;;14.68;9.15;;;;;;;1.91;62.26;99901.06;4404586;32;33332;-79
2023/03/12 07:40:50;;;;;;;11.63;7.53;;;;;;;1.90;63.39;99906.97;4402073;32;32416;-80
2023/03/12 07:43:18;;;;;;;11.60;7.32;;;;;;;2.26;62.17;99909.03;4420688;32;32507;-78
2023/03/12 07:45:48;;;;;;;13.25;8.50;;;;;;;1.98;62.51;99921.25;4448591;32;34119;-79
2023/03/12 07:48:18;;;;;;;13.68;8.27;;;;;;;2.32;61.78;99911.16;4388654;32;34695;-80
2023/03/12 07:50:46;;;;;;;13.32;8.15;;;;;;;2.67;61.89;99918.16;4402505;32;33694;-77
2023/03/12 07:53:14;;;;;;;;;;;;;;;2.51;61.57;99916.97;4400039;32;33853;-82
2023/03/12 07:55:44;;;;;;;11.10;5.18;;;;;;;2.48;62.21;99931.16;4380036;32;34961;-80
2023/03/12 07:58:14;;;;;;;11.88;6.65;;;;;;;2.70;60.35;99926.03;4402959;32;33432;-78
2023/03/12 08:00:42;;;;;;;;;;;;;;;1.98;63.08;99921.25;4411264;32;32975;-80
2023/03/12 08:03:09;;;;;;;8.95;4.40;;;;;;;2.37;62.60;99927.75;4395988;32;34927;-79
2023/03/12 08:05:37;;;;;;;7.57;3.87;;;;;;;3.01;59.20;99918.16;4415094;32;33885;-77
2023/03/12 08:08:05;;;;;;;10.80;5.30;;;;;;;2.77;58.29;99923.19;4383171;32;33781;-80
2023/03/12 08:10:33;;;;;;;8.48;3.85;;;;;;;2.81;59.08;99922.66;4385912;32;32961;-81
2023/03/12 08:13:01;;;;;;;8.55;4.18;;;;;;;3.03;57.14;99911.50;4391787;32;34433;-77
2023/03/12 08:15:28;;;;;;;9.70;4.87;;;;;;;2.66;57.54;99922.34;4375857;32;33351;-78
2023/03/12 08:17:56;;;;;;;11.55;7.15;;;;;;;2.46;58.29;99925.91;4435929;32;34633;-80
2023/03/12 08:20:23;;;;;;;7.68;4.20;;;;;;;2.88;58.42;99924.91;4402423;32;32899;-80
2023/03/12 08:22:51;;;;;;;7.30;3.95;;;;;;;2.78;57.83;99940.31;4406080;32;33666;-80
2023/03/12 08:25:19;;;;;;;10.63;6.10;;;;;;;2.95;57.49;99929.75;4381369;32;33946;-78
2023/03/12 08:27:47;;;;;;;11.25;5.05;;;;;;;3.17;59.02;99941.63;4394377;32;34684;-80
2023/03/12 08:30:15;;;;;;;8.50;5.10;;;;;;;3.61;56.13;99931.25;4380966;32;32714;-79
2023/03/12 08:32:42;;;;;;;10.70;5.30;;;;;;;3.42;55.78;99939.25;4398374;32;34376;-80
2023/03/12 08:35:11;;;;;;;9.55;4.82;;;;;;;3.20;56.65;99939.28;4377254;32;33449;-77
2023/03/12 08:37:38;;;;;;;10.82;4.90;;;;;;;3.14;56.72;99938.81;4388376;32;33383;-80
2023/03/12 08:40:11;;;;;;;6.47;3.35;;;;;;;3.77;55.68;99940.97;4393569;32;33516;-80
2023/03/12 08:42:41;;;;;;;9.88;4.40;;;;;;;3.80;51.95;99940.28;4408692;32;33036;-79
2023/03/12 08:45:10;;;;;;;10.18;5.43;;;;;;;4.01;51.68;99941.84;4395538;32;33070;-77
2023/03/12 08:47:41;;;;;;;11.68;5.95;;;;;;;4.02;53.43;99938.53;4431652;32;34703;-82
2023/03/12 08:50:10;;;;;;;9.50;5.32;;;;;;;4.38;52.88;99939.37;4411680;32;33205;-79
2023/03/12 08:52:38;;;;;;;9.50;3.87;;;;;;;4.93;51.79;99930.44;4406747;32;34600;-80
2023/03/12 08:55:06;;;;;;;9.23;5.28;;;;;;;4.77;51.12;99929.25;4365302;32;34692;-77
2023/03/12 08:57:34;;;;;;;9.68;4.57;;;;;;;4.53;52.09;99945.59;4425441;32;34228;-78
2023/03/12 09:00:04;;;;;;;8.07;4.65;;;;;;;4.44;51.55;99927.00;4432548;32;34109;-79
2023/03/12 09:02:32;;;;;;;8.20;4.25;;;;;;;4.98;49.66;99935.00;4401282;32;33893;-78
2023/03/12 09:04:59;;;;;;;8.43;4.55;;;;;;;4.71;50.92;99929.72;4406488;32;33736;-76
2023/03/12 09:07:27;;;;;;;8.40;4.05;;;;;;;4.38;50.74;99931.69;4414182;32;34410;-77
2023/03/12 09:09:54;;;;;;;7.32;4.15;;;;;;;4.84;49.16;99936.59;4377609;32;33699;-79
2023/03/12 09:12:24;;;;;;;8.40;4.97;;;;;;;4.64;49.97;99933.53;4404544;32;33811;-78
2023/03/12 09:14:51;;;;;;;7.78;4.07;;;;;;;4.25;51.23;99934.16;4418421;32;33646;-76
2023/03/12 09:17:34;;;;;;;8.48;4.35;;;;;;;4.37;50.74;99937.63;4399760;32;34371;-77
2023/03/12 09:20:08;;;;;;;7.62;4.35;;;;;;;4.93;49.47;99932.13;4440271;32;33142;-79
2023/03/12 09:22:36;;;;;;;8.32;4.85;;;;;;;4.59;50.15;99924.63;4397107;32;32637;-77
2023/03/12 09:25:05;;;;;;;8.85;4.72;;;;;;;4.51;50.62;99931.78;4442914;32;34387;-78
2023/03/12 09:27:40;;;;;;;8.38;4.78;;;;;;;5.18;49.82;99933.81;4401330;32;33499;-82
2023/03/12 09:30:11;;;;;;;7.87;3.97;;;;;;;5.93;47.71;99925.97;4427780;32;32805;-78
2023/03/12 09:32:38;;;;;;;8.55;4.57;;;;;;;5.74;47.72;99940.94;4433346;32;33310;-79
2023/03/12 09:35:07;;;;;;;9.02;4.72;;;;;;;5.16;48.35;99923.44;4416029;32;34690;-80
2023/03/12 09:37:34;;;;;;;9.43;4.18;;;;;;;5.77;46.94;99928.28;4401365;32;33499;-80
2023/03/12 09:40:06;;;;;;;9.52;4.07;;;;;;;5.58;47.42;99927.09;4415996;32;33452;-80
2023/03/12 09:42:43;;;;;;;7.90;3.90;;;;;;;5.80;48.08;99928.50;4417492;32;33590;-80
2023/03/12 09:45:27;;;;;;;9.02;4.47;;;;;;;5.62;46.52;99921.38;4420886;32;34187;-80
2023/03/12 09:47:56;;;;;;;8.02;4.43;;;;;;;5.59;46.55;99936.56;4431151;32;33891;-77
2023/03/12 09:50:31;;;;;;;7.97;4.12;;;;;;;6.06;46.16;99938.81;4389824;32;33319;-77
2023/03/12 09:53:17;;;;;;;8.80;4.20;;;;;;;5.70;45.21;99938.19;4413022;32;34436;-78
2023/03/12 09:55:47;;;;;;;5.90;3.30;;;;;;;5.40;45.42;99933.56;4372225;32;33973;-78
2023/03/12 09:58:25;;;;;;;7.87;3.83;;;;;;;6.62;43.36;99924.31;4440721;32;34794;-79
2023/03/12 10:01:06;;;;;;;9.15;4.10;;;;;;;6.13;43.62;99923.81;4380527;32;33749;-81
2023/03/12 10:03:49;;;;;;;7.50;4.05;;;;;;;6.56;44.06;99921.38;4382657;32;33498;-80
2023/03/12 10:06:19;;;;;;;8.20;3.83;;;;;;;5.82;44.40;99932.06;4385011;32;33592;-80
2023/03/12 10:09:25;;;;;;;9.00;4.12;;;;;;;6.00;44.42;99922.13;4393054;32;33647;-81
2023/03/12 10:12:06;;;;;;;7.72;3.87;;;;;;;6.88;44.90;99924.25;4366711;32;33649;-79
2023/03/12 10:15:28;;;;;;;7.37;4.03;;;;;;;6.71;42.36;99932.63;4390459;32;34311;-80
2023/03/12 10:18:17;;;;;;;7.37;3.90;;;;;;;6.55;43.83;99932.44;4340566;32;33438;-78
2023/03/12 10:20:52;;;;;;;6.80;3.67;;;;;;;7.06;43.21;99923.59;4394362;32;33935;-76
2023/03/12 10:23:58;;;;;;;6.57;3.95;;;;;;;6.56;41.88;99926.53;4394323;32;33142;-80
2023/03/12 10:26:40;;;;;;;9.43;3.60;;;;;;;6.85;40.97;99926.63;4381578;32;33866;-76
2023/03/12 10:29:18;;;;;;;7.57;3.72;;;;;;;7.02;41.51;99930.25;4368926;32;33608;-76
2023/03/12 10:32:27;;;;;;;7.43;3.45;;;;;;;6.88;40.25;99926.84;4390914;32;34395;-77
2023/03/12 10:34:57;;;;;;;7.97;3.15;;;;;;;7.11;39.96;99935.09;4374329;32;32856;-76
2023/03/12 10:37:32;;;;;;;6.78;3.58;;;;;;;7.35;39.88;99929.62;4357316;32;34407;-76
2023/03/12 10:40:01;;;;;;;5.75;2.65;;;;;;;6.63;38.72;99933.84;4331718;32;34621;-79
2023/03/12 10:42:29;;;;;;;5.20;2.70;;;;;;;7.78;37.44;99932.13;4356615;32;34833;-80
2023/03/12 10:45:08;;;;;;;5.15;2.40;;;;;;;6.99;36.07;99936.88;4374767;32;33625;-78
2023/03/12 10:47:41;;;;;;;4.53;2.30;;;;;;;7.59;36.10;99940.47;4374390;32;34022;-77
2023/03/12 10:50:11;;;;;;;5.68;2.80;;;;;;;7.34;34.28;99939.03;4380608;32;33448;-77
2023/03/12 10:52:39;;;;;;;5.62;2.53;;;;;;;8.03;34.37;99934.41;4374914;32;34704;-77
2023/03/12 10:55:25;;;;;;;5.55;2.62;;;;;;;8.16;34.76;99943.75;4360467;32;34126;-76
2023/03/12 10:57:53;;;;;;;7.30;4.18;;;;;;;7.97;35.92;99940.13;4361862;32;33417;-76
2023/03/12 11:00:25;;;;;;;9.90;3.58;;;;;;;8.50;34.73;99953.41;4374156;32;34613;-77
2023/03/12 11:03:08;;;;;;;5.87;3.17;;;;;;;8.37;35.34;99944.94;4373334;32;34652;-76
2023/03/12 11:05:47;;;;;;;4.80;2.60;;;;;;;8.62;35.71;99947.22;4358251;32;33211;-77
2023/03/12 11:08:35;;;;;;;6.10;3.30;;;;;;;8.15;37.34;99939.37;4359499;32;34420;-76
2023/03/12 11:11:04;;;;;;;5.40;2.90;;;;;;;8.31;35.11;99942.03;4356924;32;33912;-76
2023/03/12 11:13:37;;;;;;;7.07;3.97;;;;;;;9.02;34.30;99940.72;4348461;32;33874;-77
2023/03/12 11:16:17;;;;;;;6.78;3.42;;;;;;;9.35;31.78;99930.38;4360125;32;33128;-77
2023/03/12 11:18:58;;;;;;;5.40;3.15;;;;;;;9.11;33.14;99936.06;4369964;32;33697;-76
2023/03/12 11:21:27;;;;;;;5.70;2.60;;;;;;;8.39;33.94;99940.75;4358574;32;33532;-77
2023/03/12 11:24:03;;;;;;;4.53;2.08;;;;;;;8.36;32.81;99940.56;4359732;32;34433;-76
2023/03/12 11:26:44;;;;;;;4.25;1.83;;;;;;;8.92;30.38;99931.59;4365807;32;33166;-76
2023/03/12 11:29:30;;;;;;;5.20;2.08;;;;;;;8.75;27.81;99928.12;4374301;32;33974;-77
2023/03/12 11:32:16;;;;;;;3.70;1.95;;;;;;;8.50;27.93;99948.25;4355048;32;34041;-77
2023/03/12 11:34:48;;;;;;;3.60;1.60;;;;;;;9.25;28.63;99937.69;4359924;32;33930;-78
2023/03/12 11:37:42;;;;;;;5.75;2.37;;;;;;;8.87;28.44;99935.66;4359970;32;33316;-77
2023/03/12 11:40:23;;;;;;;5.62;1.98;;;;;;;9.20;27.12;99935.66;4365386;32;34572;-76
2023/03/12 11:42:59;;;;;;;4.30;2.05;;;;;;;9.08;28.46;99930.75;4388367;32;33993;-77
2023/03/12 11:45:51;;;;;;;3.22;1.70;;;;;;;9.40;26.45;99918.59;4394416;32;34674;-77
2023/03/12 11:48:35;;;;;;;4.95;2.00;;;;;;;9.47;27.83;99920.69;4399458;32;32940;-77
2023/03/12 11:51:38;;;;;;;3.53;1.27;;;;;;;9.24;27.21;99927.25;4376247;32;33689;-76
2023/03/12 11:54:25;;;;;;;7.28;2.45;;;;;;;9.63;25.93;99924.94;4388035;32;33753;-77
2023/03/12 11:56:56;;;;;;;4.37;1.52;;;;;;;9.62;27.21;99926.63;4379127;32;33428;-76